createdAt,value
2017-10-18T00:00:19.207Z,15.12
2017-10-18T00:01:19.083Z,15.09
2017-10-18T00:02:18.820Z,15.04
2017-10-18T00:03:19.165Z,15.14
2017-10-18T00:04:18.693Z,15.1
2017-10-18T00:05:18.672Z,15.1
2017-10-18T00:06:18.761Z,15.06
2017-10-18T00:07:18.662Z,15.09
2017-10-18T00:08:18.632Z,15.09
2017-10-18T00:09:18.996Z,15.07
2017-10-18T00:10:18.609Z,15
2017-10-18T00:11:18.671Z,15.09
2017-10-18T00:12:18.583Z,15.03
2017-10-18T00:13:18.915Z,15.02
2017-10-18T00:14:18.861Z,15.02
2017-10-18T00:15:18.491Z,15.02
2017-10-18T00:16:18.469Z,15.02
2017-10-18T00:17:18.788Z,14.91
2017-10-18T00:18:18.761Z,15.07
2017-10-18T00:19:18.861Z,15.07
2017-10-18T00:20:18.821Z,15.2
2017-10-18T00:21:18.727Z,15.1
2017-10-18T00:22:18.374Z,15.09
2017-10-18T00:23:18.674Z,15.04
2017-10-18T00:24:18.383Z,15.06
2017-10-18T00:25:18.632Z,15.14
2017-10-18T00:26:18.632Z,15.16
2017-10-18T00:27:18.274Z,15.1
2017-10-18T00:28:18.592Z,15.14
2017-10-18T00:29:18.229Z,15.12
2017-10-18T00:30:18.561Z,15.09
2017-10-18T00:31:18.200Z,15.16
2017-10-18T00:32:18.191Z,15.13
2017-10-18T00:33:18.591Z,15.09
2017-10-18T00:34:18.474Z,15.07
2017-10-18T00:35:18.122Z,14.94
2017-10-18T00:36:18.432Z,14.94
2017-10-18T00:37:18.096Z,15.04
2017-10-18T00:38:18.380Z,15.06
2017-10-18T00:39:18.489Z,15.03
2017-10-18T00:40:18.364Z,15.03
2017-10-18T00:41:18.373Z,15
2017-10-18T00:42:17.991Z,15
2017-10-18T00:43:18.355Z,14.96
2017-10-18T00:44:17.984Z,14.96
2017-10-18T00:45:18.262Z,14.92
2017-10-18T00:46:17.925Z,15.04
2017-10-18T00:47:17.911Z,14.94
2017-10-18T00:48:17.891Z,14.94
2017-10-18T00:49:18.292Z,14.92
2017-10-18T00:50:17.863Z,14.96
2017-10-18T00:51:18.213Z,14.85
2017-10-18T00:52:17.810Z,14.88
2017-10-18T00:53:17.801Z,14.88
2017-10-18T00:54:17.785Z,14.91
2017-10-18T00:55:17.444Z,14.84
2017-10-18T00:56:18.064Z,14.84
2017-10-18T00:57:18.054Z,14.77
2017-10-18T00:58:17.393Z,14.85
2017-10-18T00:59:17.700Z,14.79
2017-10-18T01:00:18.013Z,14.85
2017-10-18T01:01:17.652Z,14.8
2017-10-18T01:02:17.633Z,14.84
2017-10-18T01:03:17.615Z,14.88
2017-10-18T01:04:17.588Z,14.79
2017-10-18T01:05:17.921Z,14.82
2017-10-18T01:06:17.881Z,14.82
2017-10-18T01:07:17.543Z,14.8
2017-10-18T01:08:17.525Z,14.88
2017-10-18T01:09:17.883Z,14.84
2017-10-18T01:10:17.482Z,14.77
2017-10-18T01:11:17.904Z,14.87
2017-10-18T01:12:17.772Z,14.87
2017-10-18T01:13:17.532Z,14.82
2017-10-18T01:14:17.732Z,14.8
2017-10-18T01:15:17.391Z,14.84
2017-10-18T01:16:17.371Z,14.8
2017-10-18T01:17:17.691Z,14.84
2017-10-18T01:18:17.659Z,14.82
2017-10-18T01:19:17.684Z,14.8
2017-10-18T01:20:17.312Z,14.88
2017-10-18T01:21:17.621Z,14.66
2017-10-18T01:22:16.945Z,14.73
2017-10-18T01:23:17.393Z,14.68
2017-10-18T01:24:16.916Z,14.65
2017-10-18T01:25:17.214Z,14.69
2017-10-18T01:26:17.513Z,14.69
2017-10-18T01:27:16.846Z,14.58
2017-10-18T01:28:17.170Z,14.72
2017-10-18T01:29:17.147Z,14.69
2017-10-18T01:30:17.117Z,14.7
2017-10-18T01:31:17.201Z,14.66
2017-10-18T01:32:17.085Z,14.73
2017-10-18T01:33:17.065Z,14.68
2017-10-18T01:34:17.042Z,14.7
2017-10-18T01:35:17.031Z,14.68
2017-10-18T01:36:16.691Z,14.68
2017-10-18T01:37:17.044Z,14.7
2017-10-18T01:38:16.987Z,14.63
2017-10-18T01:39:16.663Z,14.55
2017-10-18T01:40:17.251Z,14.51
2017-10-18T01:41:16.974Z,14.51
2017-10-18T01:42:16.892Z,14.6
2017-10-18T01:43:16.971Z,14.55
2017-10-18T01:44:17.194Z,14.55
2017-10-18T01:45:16.851Z,14.6
2017-10-18T01:46:17.158Z,14.57
2017-10-18T01:47:16.832Z,14.62
2017-10-18T01:48:16.784Z,14.58
2017-10-18T01:49:16.762Z,14.55
2017-10-18T01:50:16.748Z,14.6
2017-10-18T01:51:16.742Z,14.62
2017-10-18T01:52:17.094Z,14.58
2017-10-18T01:53:16.696Z,14.57
2017-10-18T01:54:17.071Z,14.53
2017-10-18T01:55:16.991Z,14.57
2017-10-18T01:56:16.951Z,14.55
2017-10-18T01:57:16.962Z,14.66
2017-10-18T01:58:16.963Z,14.63
2017-10-18T01:59:17.022Z,14.66
2017-10-18T02:00:16.883Z,14.6
2017-10-18T02:01:16.869Z,14.7
2017-10-18T02:02:16.532Z,14.69
2017-10-18T02:03:16.852Z,14.72
2017-10-18T02:04:16.812Z,14.79
2017-10-18T02:05:16.840Z,14.73
2017-10-18T02:06:16.786Z,14.73
2017-10-18T02:07:16.823Z,14.68
2017-10-18T02:08:16.744Z,14.75
2017-10-18T02:09:16.806Z,14.68
2017-10-18T02:10:16.711Z,14.66
2017-10-18T02:11:16.360Z,14.7
2017-10-18T02:12:16.702Z,14.65
2017-10-18T02:13:16.692Z,14.69
2017-10-18T02:14:16.302Z,14.58
2017-10-18T02:15:16.280Z,14.58
2017-10-18T02:16:16.602Z,14.58
2017-10-18T02:17:16.582Z,14.55
2017-10-18T02:18:16.556Z,14.63
2017-10-18T02:19:15.895Z,14.66
2017-10-18T02:20:16.517Z,14.63
2017-10-18T02:21:16.190Z,14.68
2017-10-18T02:22:16.151Z,14.73
2017-10-18T02:23:16.133Z,14.72
2017-10-18T02:24:16.453Z,14.85
2017-10-18T02:25:16.106Z,14.84
2017-10-18T02:26:16.402Z,14.85
2017-10-18T02:27:16.062Z,14.82
2017-10-18T02:28:16.045Z,14.82
2017-10-18T02:29:16.341Z,14.85
2017-10-18T02:30:16.351Z,14.85
2017-10-18T02:31:16.321Z,14.89
2017-10-18T02:32:15.658Z,14.87
2017-10-18T02:33:16.292Z,14.85
2017-10-18T02:34:16.262Z,14.84
2017-10-18T02:35:16.241Z,14.82
2017-10-18T02:36:15.903Z,14.82
2017-10-18T02:37:16.210Z,14.8
2017-10-18T02:38:16.192Z,14.79
2017-10-18T02:39:16.163Z,14.85
2017-10-18T02:40:16.143Z,14.88
2017-10-18T02:41:15.811Z,14.82
2017-10-18T02:42:16.111Z,14.84
2017-10-18T02:43:16.144Z,14.85
2017-10-18T02:44:15.760Z,14.75
2017-10-18T02:45:16.074Z,14.72
2017-10-18T02:46:15.723Z,14.73
2017-10-18T02:47:16.043Z,14.75
2017-10-18T02:48:15.682Z,14.6
2017-10-18T02:49:15.332Z,14.69
2017-10-18T02:50:15.970Z,14.58
2017-10-18T02:51:15.951Z,14.69
2017-10-18T02:52:15.952Z,14.68
2017-10-18T02:53:15.582Z,14.68
2017-10-18T02:54:15.902Z,14.65
2017-10-18T02:55:15.230Z,14.62
2017-10-18T02:56:15.543Z,14.6
2017-10-18T02:57:15.522Z,14.63
2017-10-18T02:58:15.501Z,14.7
2017-10-18T02:59:15.793Z,14.68
2017-10-18T03:00:15.451Z,14.63
2017-10-18T03:01:15.764Z,14.58
2017-10-18T03:02:15.743Z,14.68
2017-10-18T03:03:15.770Z,14.6
2017-10-18T03:04:15.722Z,14.66
2017-10-18T03:05:15.364Z,14.66
2017-10-18T03:06:15.672Z,14.72
2017-10-18T03:07:15.667Z,14.6
2017-10-18T03:08:15.641Z,14.66
2017-10-18T03:09:15.613Z,14.63
2017-10-18T03:10:15.591Z,14.66
2017-10-18T03:11:15.251Z,14.66
2017-10-18T03:12:15.229Z,14.7
2017-10-18T03:13:15.260Z,14.85
2017-10-18T03:14:15.531Z,14.8
2017-10-18T03:15:15.175Z,14.8
2017-10-18T03:16:15.480Z,14.82
2017-10-18T03:17:15.137Z,14.82
2017-10-18T03:18:15.132Z,14.82
2017-10-18T03:19:15.150Z,14.91
2017-10-18T03:20:15.481Z,14.88
2017-10-18T03:21:15.075Z,14.85
2017-10-18T03:22:15.434Z,14.88
2017-10-18T03:23:15.602Z,14.82
2017-10-18T03:24:15.016Z,14.89
2017-10-18T03:25:15.352Z,14.8
2017-10-18T03:26:14.972Z,14.79
2017-10-18T03:27:15.284Z,14.8
2017-10-18T03:28:15.271Z,14.8
2017-10-18T03:29:14.924Z,14.88
2017-10-18T03:30:15.250Z,14.92
2017-10-18T03:31:14.562Z,14.85
2017-10-18T03:32:14.867Z,14.91
2017-10-18T03:33:14.857Z,14.87
2017-10-18T03:34:14.911Z,14.89
2017-10-18T03:35:14.811Z,14.91
2017-10-18T03:36:15.134Z,14.85
2017-10-18T03:37:15.103Z,14.89
2017-10-18T03:38:15.102Z,14.95
2017-10-18T03:39:15.051Z,14.95
2017-10-18T03:40:14.719Z,14.87
2017-10-18T03:41:14.701Z,14.84
2017-10-18T03:42:15.042Z,14.88
2017-10-18T03:43:14.660Z,14.82
2017-10-18T03:44:14.661Z,14.87
2017-10-18T03:45:14.965Z,14.88
2017-10-18T03:46:14.292Z,14.88
2017-10-18T03:47:14.272Z,14.87
2017-10-18T03:48:14.571Z,14.79
2017-10-18T03:49:14.550Z,14.87
2017-10-18T03:50:14.546Z,14.88
2017-10-18T03:51:14.865Z,14.8
2017-10-18T03:52:14.505Z,14.84
2017-10-18T03:53:14.476Z,14.87
2017-10-18T03:54:14.465Z,14.89
2017-10-18T03:55:14.442Z,14.82
2017-10-18T03:56:14.422Z,14.87
2017-10-18T03:57:14.403Z,14.88
2017-10-18T03:58:14.711Z,14.88
2017-10-18T03:59:14.701Z,14.88
2017-10-18T04:00:14.347Z,14.87
2017-10-18T04:01:14.340Z,14.84
2017-10-18T04:02:14.652Z,14.75
2017-10-18T04:03:14.304Z,14.72
2017-10-18T04:04:14.277Z,14.73
2017-10-18T04:05:14.595Z,14.73
2017-10-18T04:06:14.561Z,14.68
2017-10-18T04:07:14.252Z,14.73
2017-10-18T04:08:14.533Z,14.6
2017-10-18T04:09:14.506Z,14.66
2017-10-18T04:10:14.493Z,14.66
2017-10-18T04:11:14.470Z,14.72
2017-10-18T04:12:14.462Z,14.68
2017-10-18T04:13:14.432Z,14.82
2017-10-18T04:14:14.419Z,14.84
2017-10-18T04:15:14.098Z,14.88
2017-10-18T04:16:14.381Z,14.82
2017-10-18T04:17:14.384Z,14.91
2017-10-18T04:18:14.352Z,14.91
2017-10-18T04:19:14.000Z,15
2017-10-18T04:20:14.321Z,15.03
2017-10-18T04:21:13.981Z,14.96
2017-10-18T04:22:14.290Z,14.94
2017-10-18T04:23:14.254Z,14.84
2017-10-18T04:24:14.243Z,14.89
2017-10-18T04:25:13.900Z,14.84
2017-10-18T04:26:14.213Z,14.87
2017-10-18T04:27:13.871Z,14.84
2017-10-18T04:28:13.849Z,14.91
2017-10-18T04:29:13.822Z,14.87
2017-10-18T04:30:14.131Z,14.87
2017-10-18T04:31:14.115Z,14.79
2017-10-18T04:32:13.771Z,14.72
2017-10-18T04:33:13.777Z,14.63
2017-10-18T04:34:13.728Z,14.62
2017-10-18T04:35:14.031Z,14.65
2017-10-18T04:36:14.021Z,14.68
2017-10-18T04:37:13.990Z,14.66
2017-10-18T04:38:13.994Z,14.72
2017-10-18T04:39:13.971Z,14.66
2017-10-18T04:40:13.631Z,14.75
2017-10-18T04:41:13.924Z,14.88
2017-10-18T04:42:13.912Z,14.88
2017-10-18T04:43:13.894Z,14.92
2017-10-18T04:44:13.892Z,14.89
2017-10-18T04:45:13.852Z,14.95
2017-10-18T04:46:13.837Z,15
2017-10-18T04:47:13.813Z,15.02
2017-10-18T04:48:13.801Z,15.03
2017-10-18T04:49:13.480Z,15.06
2017-10-18T04:50:13.782Z,15.07
2017-10-18T04:51:13.744Z,14.87
2017-10-18T04:52:13.410Z,14.89
2017-10-18T04:53:13.056Z,14.84
2017-10-18T04:54:13.363Z,14.94
2017-10-18T04:55:13.343Z,14.92
2017-10-18T04:56:13.333Z,15.09
2017-10-18T04:57:13.654Z,15.07
2017-10-18T04:58:13.633Z,15.12
2017-10-18T04:59:13.594Z,15.07
2017-10-18T05:00:13.611Z,15.1
2017-10-18T05:01:13.230Z,15.14
2017-10-18T05:02:13.530Z,15.1
2017-10-18T05:03:13.531Z,15.14
2017-10-18T05:04:13.190Z,15.14
2017-10-18T05:05:13.164Z,15.12
2017-10-18T05:06:13.240Z,15.1
2017-10-18T05:07:13.152Z,15.06
2017-10-18T05:08:12.911Z,15.04
2017-10-18T05:09:13.089Z,15.03
2017-10-18T05:10:13.414Z,15.06
2017-10-18T05:11:13.382Z,15.09
2017-10-18T05:12:13.163Z,15.09
2017-10-18T05:13:12.694Z,15.1
2017-10-18T05:14:13.112Z,15.1
2017-10-18T05:15:12.658Z,15.16
2017-10-18T05:16:12.971Z,15.17
2017-10-18T05:17:12.973Z,15.1
2017-10-18T05:18:12.989Z,15.13
2017-10-18T05:19:12.912Z,15.09
2017-10-18T05:20:13.221Z,15.14
2017-10-18T05:21:12.980Z,15.09
2017-10-18T05:22:13.184Z,15.14
2017-10-18T05:23:12.851Z,15.16
2017-10-18T05:24:12.819Z,15.12
2017-10-18T05:25:13.120Z,15.2
2017-10-18T05:26:12.792Z,15.17
2017-10-18T05:27:12.769Z,15.12
2017-10-18T05:28:12.736Z,15.13
2017-10-18T05:29:13.070Z,15.17
2017-10-18T05:30:13.032Z,15.09
2017-10-18T05:31:13.031Z,15.13
2017-10-18T05:32:12.670Z,15.14
2017-10-18T05:33:12.981Z,15.12
2017-10-18T05:34:12.951Z,15.13
2017-10-18T05:35:12.630Z,15.12
2017-10-18T05:36:12.923Z,15.1
2017-10-18T05:37:12.263Z,15.1
2017-10-18T05:38:12.569Z,15.2
2017-10-18T05:39:12.634Z,15.09
2017-10-18T05:40:12.847Z,15.24
2017-10-18T05:41:12.824Z,15.22
2017-10-18T05:42:12.509Z,15.09
2017-10-18T05:43:12.154Z,15.1
2017-10-18T05:44:12.782Z,15.12
2017-10-18T05:45:12.530Z,15.12
2017-10-18T05:46:12.744Z,15.09
2017-10-18T05:47:12.404Z,15.1
2017-10-18T05:48:12.690Z,15.06
2017-10-18T05:49:12.370Z,15
2017-10-18T05:50:12.356Z,15.07
2017-10-18T05:51:12.648Z,15.07
2017-10-18T05:52:12.631Z,15.04
2017-10-18T05:53:12.285Z,15.03
2017-10-18T05:54:12.264Z,14.92
2017-10-18T05:55:12.600Z,14.8
2017-10-18T05:56:11.914Z,14.57
2017-10-18T05:57:12.220Z,14.5
2017-10-18T05:58:12.196Z,14.5
2017-10-18T05:59:12.185Z,14.5
2017-10-18T06:00:12.159Z,14.51
2017-10-18T06:01:12.463Z,14.54
2017-10-18T06:02:12.130Z,14.35
2017-10-18T06:03:12.121Z,14.35
2017-10-18T06:04:12.414Z,14.35
2017-10-18T06:05:12.072Z,14.26
2017-10-18T06:06:12.047Z,14.17
2017-10-18T06:07:12.031Z,14.17
2017-10-18T06:08:12.360Z,14.2
2017-10-18T06:09:12.001Z,14.35
2017-10-18T06:10:11.672Z,14.38
2017-10-18T06:11:11.961Z,14.47
2017-10-18T06:12:11.969Z,14.36
2017-10-18T06:13:12.250Z,14.22
2017-10-18T06:14:11.899Z,14.14
2017-10-18T06:15:12.216Z,14.13
2017-10-18T06:16:12.191Z,13.97
2017-10-18T06:17:12.162Z,13.96
2017-10-18T06:18:12.144Z,13.93
2017-10-18T06:19:11.822Z,14.05
2017-10-18T06:20:12.130Z,14.11
2017-10-18T06:21:12.101Z,14.11
2017-10-18T06:22:12.083Z,14.08
2017-10-18T06:23:12.051Z,14.18
2017-10-18T06:24:11.447Z,14.11
2017-10-18T06:25:12.038Z,14.17
2017-10-18T06:26:12.019Z,14.14
2017-10-18T06:27:11.654Z,14.18
2017-10-18T06:28:11.972Z,14.18
2017-10-18T06:29:11.680Z,14.18
2017-10-18T06:30:11.600Z,14.17
2017-10-18T06:31:11.925Z,14.13
2017-10-18T06:32:11.914Z,14.18
2017-10-18T06:33:11.890Z,14.14
2017-10-18T06:34:11.861Z,14.08
2017-10-18T06:35:11.508Z,13.93
2017-10-18T06:36:11.820Z,13.82
2017-10-18T06:37:11.811Z,13.84
2017-10-18T06:38:11.455Z,13.71
2017-10-18T06:39:11.541Z,13.82
2017-10-18T06:40:11.435Z,13.74
2017-10-18T06:41:11.738Z,13.72
2017-10-18T06:42:11.391Z,13.74
2017-10-18T06:43:11.444Z,13.65
2017-10-18T06:44:11.022Z,13.7
2017-10-18T06:45:11.648Z,13.74
2017-10-18T06:46:11.631Z,13.74
2017-10-18T06:47:11.386Z,13.81
2017-10-18T06:48:11.604Z,13.81
2017-10-18T06:49:11.578Z,13.78
2017-10-18T06:50:11.551Z,13.85
2017-10-18T06:51:11.539Z,13.92
2017-10-18T06:52:11.503Z,13.99
2017-10-18T06:53:11.502Z,13.95
2017-10-18T06:54:11.489Z,13.9
2017-10-18T06:55:11.451Z,13.8
2017-10-18T06:56:11.453Z,13.84
2017-10-18T06:57:11.441Z,14
2017-10-18T06:58:11.081Z,14.1
2017-10-18T06:59:11.050Z,14.11
2017-10-18T07:00:11.366Z,14.21
2017-10-18T07:01:11.352Z,14.17
2017-10-18T07:02:11.341Z,14.05
2017-10-18T07:03:11.073Z,13.84
2017-10-18T07:04:11.271Z,13.84
2017-10-18T07:05:11.040Z,13.81
2017-10-18T07:06:11.256Z,13.84
2017-10-18T07:07:11.007Z,13.92
2017-10-18T07:08:11.222Z,13.93
2017-10-18T07:09:10.537Z,13.84
2017-10-18T07:10:10.847Z,13.93
2017-10-18T07:11:10.817Z,13.9
2017-10-18T07:12:10.821Z,13.82
2017-10-18T07:13:10.460Z,13.96
2017-10-18T07:14:10.761Z,13.95
2017-10-18T07:15:10.434Z,13.92
2017-10-18T07:16:10.741Z,13.93
2017-10-18T07:17:10.709Z,13.82
2017-10-18T07:18:11.028Z,13.82
2017-10-18T07:19:10.991Z,13.89
2017-10-18T07:20:10.980Z,13.96
2017-10-18T07:21:10.630Z,13.96
2017-10-18T07:22:10.941Z,13.92
2017-10-18T07:23:10.594Z,14
2017-10-18T07:24:10.914Z,13.97
2017-10-18T07:25:10.913Z,13.93
2017-10-18T07:26:10.872Z,13.88
2017-10-18T07:27:10.862Z,13.92
2017-10-18T07:28:10.184Z,13.96
2017-10-18T07:29:10.821Z,13.95
2017-10-18T07:30:10.783Z,13.97
2017-10-18T07:31:10.770Z,14.02
2017-10-18T07:32:10.741Z,14.15
2017-10-18T07:33:10.077Z,14.08
2017-10-18T07:34:10.719Z,13.81
2017-10-18T07:35:10.710Z,13.8
2017-10-18T07:36:10.030Z,13.96
2017-10-18T07:37:10.643Z,13.93
2017-10-18T07:38:10.648Z,14.08
2017-10-18T07:39:10.290Z,14.18
2017-10-18T07:40:10.612Z,14.13
2017-10-18T07:41:10.580Z,14.05
2017-10-18T07:42:10.254Z,13.95
2017-10-18T07:43:10.606Z,13.95
2017-10-18T07:44:10.540Z,14.1
2017-10-18T07:45:10.513Z,14.07
2017-10-18T07:46:10.483Z,14
2017-10-18T07:47:10.483Z,13.93
2017-10-18T07:48:10.441Z,13.99
2017-10-18T07:49:10.113Z,14.08
2017-10-18T07:50:10.441Z,14.08
2017-10-18T07:51:10.405Z,14.17
2017-10-18T07:52:10.383Z,14.29
2017-10-18T07:53:10.033Z,14.35
2017-10-18T07:54:10.022Z,14.26
2017-10-18T07:55:10.319Z,14.32
2017-10-18T07:56:10.303Z,14.32
2017-10-18T07:57:09.949Z,14.25
2017-10-18T07:58:10.094Z,14.22
2017-10-18T07:59:10.241Z,14.35
2017-10-18T08:00:09.954Z,14.33
2017-10-18T08:01:10.215Z,14.4
2017-10-18T08:02:10.185Z,14.46
2017-10-18T08:03:09.860Z,14.48
2017-10-18T08:04:10.150Z,14.58
2017-10-18T08:05:09.818Z,14.82
2017-10-18T08:06:09.802Z,14.92
2017-10-18T08:07:09.785Z,14.91
2017-10-18T08:08:10.080Z,14.89
2017-10-18T08:09:10.062Z,14.82
2017-10-18T08:10:10.041Z,14.87
2017-10-18T08:11:10.010Z,14.87
2017-10-18T08:12:09.994Z,14.88
2017-10-18T08:13:09.664Z,14.92
2017-10-18T08:14:09.971Z,14.85
2017-10-18T08:15:09.629Z,14.87
2017-10-18T08:16:09.630Z,14.85
2017-10-18T08:17:09.930Z,14.87
2017-10-18T08:18:09.567Z,14.95
2017-10-18T08:19:09.555Z,14.98
2017-10-18T08:20:09.567Z,15.09
2017-10-18T08:21:09.846Z,15.1
2017-10-18T08:22:09.816Z,15.06
2017-10-18T08:23:09.813Z,15.1
2017-10-18T08:24:09.971Z,15.04
2017-10-18T08:25:09.767Z,14.82
2017-10-18T08:26:09.782Z,14.77
2017-10-18T08:27:09.729Z,14.72
2017-10-18T08:28:09.732Z,14.85
2017-10-18T08:29:09.771Z,14.79
2017-10-18T08:30:09.686Z,14.75
2017-10-18T08:31:09.673Z,14.82
2017-10-18T08:32:09.654Z,14.7
2017-10-18T08:33:09.654Z,14.73
2017-10-18T08:34:09.606Z,14.66
2017-10-18T08:35:09.284Z,14.72
2017-10-18T08:36:09.573Z,14.68
2017-10-18T08:37:09.592Z,14.6
2017-10-18T08:38:09.562Z,14.72
2017-10-18T08:39:09.534Z,14.68
2017-10-18T08:40:09.524Z,14.82
2017-10-18T08:41:09.599Z,14.72
2017-10-18T08:42:09.472Z,14.68
2017-10-18T08:43:09.200Z,14.68
2017-10-18T08:44:09.431Z,14.66
2017-10-18T08:45:09.417Z,14.79
2017-10-18T08:46:09.382Z,14.91
2017-10-18T08:47:09.052Z,14.89
2017-10-18T08:48:09.023Z,15.04
2017-10-18T08:49:09.884Z,15.06
2017-10-18T08:50:09.333Z,15.1
2017-10-18T08:51:09.303Z,15.22
2017-10-18T08:52:09.270Z,15.12
2017-10-18T08:53:09.341Z,15.24
2017-10-18T08:54:08.914Z,15.4
2017-10-18T08:55:09.244Z,15.44
2017-10-18T08:56:08.884Z,15.44
2017-10-18T08:57:09.199Z,15.52
2017-10-18T08:58:09.171Z,15.54
2017-10-18T08:59:08.853Z,15.71
2017-10-18T09:00:09.257Z,15.79
2017-10-18T09:01:08.781Z,15.77
2017-10-18T09:02:09.100Z,15.76
2017-10-18T09:03:09.106Z,16
2017-10-18T09:04:09.092Z,15.83
2017-10-18T09:05:08.731Z,15.87
2017-10-18T09:06:08.719Z,15.86
2017-10-18T09:07:09.012Z,15.9
2017-10-18T09:08:09.021Z,15.94
2017-10-18T09:09:08.986Z,15.95
2017-10-18T09:10:08.972Z,15.92
2017-10-18T09:11:08.305Z,15.79
2017-10-18T09:12:08.940Z,15.61
2017-10-18T09:13:08.582Z,15.49
2017-10-18T09:14:08.243Z,15.53
2017-10-18T09:15:08.554Z,15.53
2017-10-18T09:16:08.860Z,15.76
2017-10-18T09:17:08.520Z,15.83
2017-10-18T09:18:08.822Z,15.95
2017-10-18T09:19:08.813Z,16.13
2017-10-18T09:20:08.472Z,16.24
2017-10-18T09:21:08.771Z,16.35
2017-10-18T09:22:08.431Z,16.36
2017-10-18T09:23:08.731Z,16.35
2017-10-18T09:24:08.751Z,16.27
2017-10-18T09:25:08.382Z,16.32
2017-10-18T09:26:08.702Z,16.26
2017-10-18T09:27:08.379Z,16.32
2017-10-18T09:28:08.369Z,16.36
2017-10-18T09:29:08.656Z,16.32
2017-10-18T09:30:08.624Z,16.34
2017-10-18T09:31:08.613Z,16.36
2017-10-18T09:32:08.662Z,16.34
2017-10-18T09:33:08.552Z,16.38
2017-10-18T09:34:08.233Z,16.38
2017-10-18T09:35:08.549Z,16.39
2017-10-18T09:36:08.510Z,16.43
2017-10-18T09:37:08.172Z,16.45
2017-10-18T09:38:08.527Z,16.36
2017-10-18T09:39:08.120Z,16.43
2017-10-18T09:40:07.845Z,16.46
2017-10-18T09:41:08.143Z,16.58
2017-10-18T09:42:08.420Z,16.57
2017-10-18T09:43:08.116Z,16.45
2017-10-18T09:44:08.371Z,16.5
2017-10-18T09:45:08.394Z,16.38
2017-10-18T09:46:08.447Z,16.32
2017-10-18T09:47:08.402Z,16.35
2017-10-18T09:48:08.392Z,16.39
2017-10-18T09:49:07.670Z,16.45
2017-10-18T09:50:08.024Z,16.53
2017-10-18T09:51:07.975Z,16.63
2017-10-18T09:52:08.311Z,16.72
2017-10-18T09:53:08.304Z,16.75
2017-10-18T09:54:08.213Z,16.79
2017-10-18T09:55:07.542Z,16.69
2017-10-18T09:56:08.233Z,16.72
2017-10-18T09:57:08.172Z,16.69
2017-10-18T09:58:08.221Z,16.64
2017-10-18T09:59:07.468Z,16.75
2017-10-18T10:00:07.501Z,16.63
2017-10-18T10:01:08.095Z,16.68
2017-10-18T10:02:08.104Z,16.61
2017-10-18T10:03:08.072Z,16.66
2017-10-18T10:04:08.054Z,16.64
2017-10-18T10:05:08.091Z,16.66
2017-10-18T10:06:07.790Z,16.66
2017-10-18T10:07:07.662Z,16.79
2017-10-18T10:08:07.662Z,16.85
2017-10-18T10:09:07.641Z,16.81
2017-10-18T10:10:07.952Z,16.57
2017-10-18T10:11:07.933Z,16.66
2017-10-18T10:12:07.914Z,16.74
2017-10-18T10:13:07.995Z,16.76
2017-10-18T10:14:07.889Z,16.85
2017-10-18T10:15:07.543Z,16.9
2017-10-18T10:16:07.854Z,16.94
2017-10-18T10:17:07.842Z,17.05
2017-10-18T10:18:07.926Z,17.21
2017-10-18T10:19:07.811Z,17.46
2017-10-18T10:20:07.777Z,17.92
2017-10-18T10:21:07.534Z,18.45
2017-10-18T10:22:07.433Z,18.67
2017-10-18T10:23:07.402Z,19.04
2017-10-18T10:24:07.781Z,19.41
2017-10-18T10:25:07.389Z,19.76
2017-10-18T10:26:07.362Z,19.93
2017-10-18T10:27:07.402Z,20.06
2017-10-18T10:28:07.651Z,20.31
2017-10-18T10:29:07.333Z,20.49
2017-10-18T10:30:07.633Z,20.51
2017-10-18T10:31:07.295Z,20.57
2017-10-18T10:32:07.284Z,20.55
2017-10-18T10:33:07.601Z,20.82
2017-10-18T10:34:07.594Z,21.04
2017-10-18T10:35:07.561Z,21.34
2017-10-18T10:36:07.235Z,21.46
2017-10-18T10:37:07.561Z,21.68
2017-10-18T10:38:07.543Z,21.95
2017-10-18T10:39:07.549Z,22.05
2017-10-18T10:40:07.197Z,22.22
2017-10-18T10:41:07.495Z,22.51
2017-10-18T10:42:07.173Z,22.47
2017-10-18T10:43:07.495Z,22.7
2017-10-18T10:44:06.825Z,22.67
2017-10-18T10:45:07.480Z,22.97
2017-10-18T10:46:07.163Z,23.04
2017-10-18T10:47:07.126Z,23.13
2017-10-18T10:48:07.461Z,23.13
2017-10-18T10:49:07.424Z,23.22
2017-10-18T10:50:07.430Z,23.35
2017-10-18T10:51:07.433Z,23.38
2017-10-18T10:52:07.392Z,23.54
2017-10-18T10:53:07.381Z,23.63
2017-10-18T10:54:07.380Z,23.69
2017-10-18T10:55:07.358Z,23.77
2017-10-18T10:56:07.043Z,23.89
2017-10-18T10:57:07.339Z,23.92
2017-10-18T10:58:07.353Z,24.06
2017-10-18T10:59:07.315Z,24.24
2017-10-18T11:00:07.312Z,24.1
2017-10-18T11:01:07.326Z,24.12
2017-10-18T11:02:07.308Z,24.07
2017-10-18T11:03:07.293Z,24.12
2017-10-18T11:04:07.274Z,24.25
2017-10-18T11:05:07.264Z,24.34
2017-10-18T11:06:06.944Z,24.39
2017-10-18T11:07:07.365Z,24.43
2017-10-18T11:08:06.921Z,24.39
2017-10-18T11:09:07.265Z,23.8
2017-10-18T11:10:07.237Z,23.87
2017-10-18T11:11:07.213Z,23.85
2017-10-18T11:12:07.223Z,23.82
2017-10-18T11:13:07.191Z,23.97
2017-10-18T11:14:07.190Z,24.12
2017-10-18T11:15:07.264Z,24.37
2017-10-18T11:16:07.164Z,24.34
2017-10-18T11:17:06.830Z,24.42
2017-10-18T11:18:07.374Z,24.52
2017-10-18T11:19:07.135Z,24.64
2017-10-18T11:20:07.174Z,24.75
2017-10-18T11:21:07.121Z,24.87
2017-10-18T11:22:07.104Z,24.92
2017-10-18T11:23:07.110Z,25
2017-10-18T11:24:07.104Z,25.11
2017-10-18T11:25:07.106Z,25.17
2017-10-18T11:26:07.076Z,25.1
2017-10-18T11:27:07.081Z,24.96
2017-10-18T11:28:07.051Z,25.03
2017-10-18T11:29:06.721Z,25.26
2017-10-18T11:30:07.046Z,25.32
2017-10-18T11:31:06.691Z,25.15
2017-10-18T11:32:06.698Z,25.02
2017-10-18T11:33:07.018Z,25.14
2017-10-18T11:34:07.007Z,25.27
2017-10-18T11:35:06.662Z,25.18
2017-10-18T11:36:06.987Z,24.97
2017-10-18T11:37:07.000Z,24.84
2017-10-18T11:38:06.951Z,24.9
2017-10-18T11:39:06.629Z,24.81
2017-10-18T11:40:06.624Z,24.84
2017-10-18T11:41:06.931Z,24.87
2017-10-18T11:42:06.603Z,24.81
2017-10-18T11:43:06.600Z,24.95
2017-10-18T11:44:06.580Z,25.11
2017-10-18T11:45:06.893Z,25.17
2017-10-18T11:46:06.923Z,25.3
2017-10-18T11:47:06.224Z,25.19
2017-10-18T11:48:06.874Z,25.11
2017-10-18T11:49:06.884Z,25.03
2017-10-18T11:50:06.621Z,25.02
2017-10-18T11:51:06.531Z,25.15
2017-10-18T11:52:06.892Z,25.12
2017-10-18T11:53:06.499Z,25.4
2017-10-18T11:54:06.817Z,25.29
2017-10-18T11:55:06.792Z,25.32
2017-10-18T11:56:06.865Z,25.07
2017-10-18T11:57:06.789Z,25.14
2017-10-18T11:58:06.521Z,25.21
2017-10-18T11:59:06.763Z,25.14
2017-10-18T12:00:06.812Z,25.18
2017-10-18T12:01:06.752Z,25.27
2017-10-18T12:02:06.741Z,25.19
2017-10-18T12:03:06.740Z,25.3
2017-10-18T12:04:06.743Z,25.22
2017-10-18T12:05:06.719Z,25.33
2017-10-18T12:06:06.710Z,25.29
2017-10-18T12:07:06.701Z,25.29
2017-10-18T12:08:06.701Z,25.29
2017-10-18T12:09:06.674Z,25.27
2017-10-18T12:10:06.678Z,25.27
2017-10-18T12:11:06.705Z,25.29
2017-10-18T12:12:06.330Z,25.05
2017-10-18T12:13:06.730Z,25.07
2017-10-18T12:14:06.631Z,25.26
2017-10-18T12:15:06.617Z,25.3
2017-10-18T12:16:06.467Z,25.19
2017-10-18T12:17:06.618Z,24.81
2017-10-18T12:18:06.885Z,24.78
2017-10-18T12:19:06.585Z,24.81
2017-10-18T12:20:06.252Z,25.02
2017-10-18T12:21:06.242Z,25.18
2017-10-18T12:22:06.573Z,25.32
2017-10-18T12:23:06.580Z,25.33
2017-10-18T12:24:06.224Z,25.42
2017-10-18T12:25:06.525Z,25.32
2017-10-18T12:26:06.550Z,25.25
2017-10-18T12:27:06.511Z,25.27
2017-10-18T12:28:06.202Z,25.34
2017-10-18T12:29:06.240Z,25.37
2017-10-18T12:30:06.502Z,25.45
2017-10-18T12:31:06.482Z,25.44
2017-10-18T12:32:06.487Z,25.49
2017-10-18T12:33:06.180Z,25.54
2017-10-18T12:34:06.143Z,25.63
2017-10-18T12:35:06.521Z,25.64
2017-10-18T12:36:06.431Z,25.74
2017-10-18T12:37:06.250Z,25.54
2017-10-18T12:38:06.483Z,25.59
2017-10-18T12:39:06.122Z,25.55
2017-10-18T12:40:06.414Z,25.69
2017-10-18T12:41:06.490Z,25.66
2017-10-18T12:42:06.421Z,25.7
2017-10-18T12:43:06.114Z,25.79
2017-10-18T12:44:06.050Z,25.82
2017-10-18T12:45:06.437Z,25.86
2017-10-18T12:46:06.361Z,25.81
2017-10-18T12:47:06.460Z,25.77
2017-10-18T12:48:06.054Z,25.77
2017-10-18T12:49:06.360Z,25.77
2017-10-18T12:50:06.340Z,25.88
2017-10-18T12:51:06.320Z,25.82
2017-10-18T12:52:06.308Z,25.66
2017-10-18T12:53:05.958Z,25.71
2017-10-18T12:54:06.277Z,25.71
2017-10-18T12:55:06.269Z,25.64
2017-10-18T12:56:05.924Z,25.44